Time;durP1;ratioP1;P1;durP2;ratioP2;P2;SDS_P1;SDS_P2;PMS_P1;PMS_P2;Temp;Humidity;BMP_temperature;BMP_pressure;BME280_temperature;BME280_humidity;BME280_pressure;Samples;Min_cycle;Max_cycle;Signal;HPM_P1;HPM_P2
2022/03/04 00:00:22;;;;;;;89.10;32.05;;;;;;;3.02;100.00;98148.50;4985011;28;20058;-76
2022/03/04 00:02:48;;;;;;;83.20;31.65;;;;;;;3.01;100.00;98141.53;4986114;28;20054;-77
2022/03/04 00:05:15;;;;;;;81.70;31.05;;;;;;;3.01;100.00;98153.03;4989325;28;20637;-77
2022/03/04 00:07:42;;;;;;;83.07;30.08;;;;;;;2.94;100.00;98152.41;4990037;28;20159;-77
2022/03/04 00:10:08;;;;;;;88.88;31.20;;;;;;;2.75;100.00;98153.03;4989808;28;20051;-77
2022/03/04 00:12:35;;;;;;;81.43;28.63;;;;;;;2.81;100.00;98142.16;4988968;28;20054;-77
2022/03/04 00:15:02;;;;;;;81.05;30.88;;;;;;;2.87;100.00;98151.81;4991417;28;20058;-77
2022/03/04 00:17:29;;;;;;;86.97;30.63;;;;;;;2.83;100.00;98153.41;4990411;28;20105;-78
2022/03/04 00:19:55;;;;;;;87.50;30.15;;;;;;;2.76;100.00;98146.63;4989726;28;20054;-75
2022/03/04 00:22:22;;;;;;;89.38;30.67;;;;;;;2.74;100.00;98143.38;4988555;28;20497;-76
2022/03/04 00:24:48;;;;;;;83.70;30.08;;;;;;;2.80;100.00;98161.09;4990276;28;20096;-77
2022/03/04 00:27:15;;;;;;;88.50;31.33;;;;;;;2.74;100.00;98151.41;4989892;28;20113;-78
2022/03/04 00:29:42;;;;;;;90.90;30.23;;;;;;;2.73;100.00;98147.94;4989584;28;20054;-78
2022/03/04 00:32:09;;;;;;;84.30;30.38;;;;;;;2.67;100.00;98164.16;4988620;28;20054;-77
2022/03/04 00:34:36;;;;;;;90.15;29.60;;;;;;;2.66;100.00;98151.88;4989884;28;20058;-77
2022/03/04 00:37:03;;;;;;;89.70;30.75;;;;;;;2.66;100.00;98165.25;4990424;28;20054;-77
2022/03/04 00:39:29;;;;;;;87.38;29.83;;;;;;;2.67;100.00;98166.84;4990391;28;20111;-77
2022/03/04 00:41:56;;;;;;;86.80;30.20;;;;;;;2.58;100.00;98163.81;4991424;28;20108;-77
2022/03/04 00:44:22;;;;;;;86.60;30.30;;;;;;;2.72;100.00;98175.72;4991340;28;20081;-77
2022/03/04 00:46:49;;;;;;;80.97;29.33;;;;;;;2.64;100.00;98156.66;4990694;28;20057;-78
2022/03/04 00:49:16;;;;;;;84.93;29.20;;;;;;;2.60;100.00;98172.41;4991882;28;20479;-77
2022/03/04 00:51:43;;;;;;;91.88;29.83;;;;;;;2.58;100.00;98165.69;4992502;28;20077;-77
2022/03/04 00:54:09;;;;;;;99.60;29.95;;;;;;;2.65;100.00;98155.59;4993324;28;20123;-77
2022/03/04 00:56:36;;;;;;;91.43;29.40;;;;;;;2.61;100.00;98174.00;4993027;28;20057;-76
2022/03/04 00:59:04;;;;;;;86.70;28.92;;;;;;;2.63;100.00;98163.88;4993253;28;20058;-77
2022/03/04 01:01:31;;;;;;;92.80;29.50;;;;;;;2.44;100.00;98170.59;4995166;28;20047;-76
2022/03/04 01:03:58;;;;;;;83.60;28.05;;;;;;;2.41;100.00;98179.91;4997576;28;20061;-77
2022/03/04 01:06:25;;;;;;;89.28;29.75;;;;;;;2.30;100.00;98177.34;5006759;28;20038;-78
2022/03/04 01:08:52;;;;;;;99.38;29.75;;;;;;;2.50;100.00;98173.06;5005942;28;20088;-78
2022/03/04 01:11:18;;;;;;;92.53;28.73;;;;;;;2.43;100.00;98172.47;4992829;28;20062;-76
2022/03/04 01:13:45;;;;;;;100.20;30.25;;;;;;;2.48;100.00;98174.38;4992321;28;20057;-78
2022/03/04 01:16:12;;;;;;;93.38;29.80;;;;;;;2.53;100.00;98177.91;4998744;28;20050;-77
2022/03/04 01:18:38;;;;;;;96.38;29.77;;;;;;;2.71;100.00;98186.69;5004873;28;20042;-78
2022/03/04 01:21:05;;;;;;;88.35;29.48;;;;;;;2.48;100.00;98175.19;5006571;28;20085;-77
2022/03/04 01:23:32;;;;;;;90.72;28.85;;;;;;;2.43;100.00;98177.78;4993301;28;20400;-77
2022/03/04 01:25:58;;;;;;;98.05;30.48;;;;;;;2.30;100.00;98178.16;4993481;28;20128;-77
2022/03/04 01:28:25;;;;;;;90.93;28.50;;;;;;;2.48;100.00;98182.38;4993881;28;20054;-77
2022/03/04 01:30:51;;;;;;;89.15;27.10;;;;;;;2.48;100.00;98185.88;4993191;28;20050;-77
2022/03/04 01:33:18;;;;;;;95.93;30.45;;;;;;;2.52;100.00;98172.84;4992428;28;20057;-77
2022/03/04 01:35:46;;;;;;;91.72;27.85;;;;;;;2.43;100.00;98175.13;4992968;28;20050;-77
2022/03/04 01:38:12;;;;;;;94.40;28.80;;;;;;;2.41;100.00;98182.59;4993252;28;20084;-77
2022/03/04 01:40:39;;;;;;;92.72;28.77;;;;;;;2.55;100.00;98171.53;4992893;28;20077;-77
2022/03/04 01:43:06;;;;;;;84.82;27.13;;;;;;;2.53;100.00;98169.91;4992011;28;20109;-77
2022/03/04 01:45:33;;;;;;;85.97;27.35;;;;;;;2.30;100.00;98170.16;4992252;28;20134;-77
2022/03/04 01:47:59;;;;;;;87.00;27.50;;;;;;;2.19;100.00;98173.78;4991565;28;20069;-77
2022/03/04 01:50:26;;;;;;;88.20;27.95;;;;;;;2.45;100.00;98180.25;4991302;28;20054;-77
2022/03/04 01:52:53;;;;;;;98.22;29.85;;;;;;;1.91;100.00;98189.13;4990340;28;20104;-77
2022/03/04 01:55:20;;;;;;;94.53;28.08;;;;;;;2.27;100.00;98181.34;4990976;28;20553;-78
2022/03/04 01:57:46;;;;;;;105.93;29.65;;;;;;;2.32;100.00;98177.94;5005853;28;20046;-76
2022/03/04 02:00:15;;;;;;;96.25;27.73;;;;;;;2.10;100.00;98185.94;4992688;28;20050;-77
2022/03/04 02:02:43;;;;;;;109.25;28.48;;;;;;;1.95;100.00;98185.72;4991328;28;20050;-76
2022/03/04 02:05:15;;;;;;;96.40;28.27;;;;;;;2.07;100.00;98177.59;4990113;28;20134;-77
2022/03/04 02:07:42;;;;;;;103.57;28.80;;;;;;;1.75;100.00;98174.75;4991707;28;20113;-78
2022/03/04 02:10:09;;;;;;;98.53;27.02;;;;;;;1.92;100.00;98172.88;4991735;28;20061;-78
2022/03/04 02:12:37;;;;;;;91.68;26.92;;;;;;;1.97;100.00;98167.59;4993651;28;20050;-78
2022/03/04 02:15:05;;;;;;;94.18;26.88;;;;;;;1.67;100.00;98172.50;4978949;28;20104;-77
2022/03/04 02:17:31;;;;;;;80.72;24.98;;;;;;;1.98;100.00;98177.22;4992902;28;20069;-75
2022/03/04 02:19:59;;;;;;;88.28;26.10;;;;;;;1.85;100.00;98174.91;4991233;28;20085;-77
2022/03/04 02:22:25;;;;;;;86.93;26.25;;;;;;;1.87;100.00;98172.78;4989678;28;20061;-78
2022/03/04 02:24:52;;;;;;;91.40;25.33;;;;;;;1.55;100.00;98177.91;4994731;28;20050;-77
2022/03/04 02:27:19;;;;;;;89.20;26.42;;;;;;;1.50;100.00;98183.19;4994675;28;20042;-77
2022/03/04 02:29:45;;;;;;;88.22;25.05;;;;;;;1.62;100.00;98181.25;4995068;28;20050;-78
2022/03/04 02:32:12;;;;;;;89.85;26.52;;;;;;;1.45;100.00;98184.94;4993465;28;20357;-77
2022/03/04 02:34:38;;;;;;;99.57;27.25;;;;;;;1.22;100.00;98185.94;4994395;28;20054;-77
2022/03/04 02:37:05;;;;;;;95.90;26.73;;;;;;;0.97;100.00;98185.50;4994491;28;20046;-77
2022/03/04 02:39:32;;;;;;;94.25;26.58;;;;;;;1.36;100.00;98192.56;4995322;28;20050;-77
2022/03/04 02:41:58;;;;;;;99.30;27.17;;;;;;;1.44;100.00;98186.03;4995975;28;20046;-78
2022/03/04 02:44:28;;;;;;;90.70;25.23;;;;;;;1.65;100.00;98183.41;4996028;28;20065;-79
2022/03/04 02:46:55;;;;;;;97.55;26.88;;;;;;;1.48;100.00;98195.97;4992725;28;20050;-77
2022/03/04 02:49:21;;;;;;;75.57;23.73;;;;;;;1.35;100.00;98201.63;4990971;28;20058;-77
2022/03/04 02:51:48;;;;;;;85.28;24.50;;;;;;;1.22;100.00;98202.75;4989828;28;20132;-77
2022/03/04 02:54:14;;;;;;;70.18;21.52;;;;;;;1.59;100.00;98199.59;4990520;28;20050;-77
2022/03/04 02:56:41;;;;;;;68.47;20.42;;;;;;;1.51;100.00;98194.66;4990090;28;20050;-79
2022/03/04 02:59:07;;;;;;;65.55;19.45;;;;;;;1.48;100.00;98205.81;4991869;28;20038;-77
2022/03/04 03:01:34;;;;;;;64.95;19.98;;;;;;;1.59;100.00;98186.25;4991082;28;20169;-75
2022/03/04 03:04:01;;;;;;;64.90;20.40;;;;;;;1.86;100.00;98190.66;4988899;28;20060;-77
2022/03/04 03:06:28;;;;;;;64.65;20.83;;;;;;;1.45;100.00;98190.28;4988536;28;20058;-77
2022/03/04 03:08:54;;;;;;;69.30;20.90;;;;;;;1.62;100.00;98194.59;4989258;28;20104;-78
2022/03/04 03:11:21;;;;;;;64.50;19.38;;;;;;;1.38;100.00;98185.13;4991055;28;20097;-78
2022/03/04 03:13:47;;;;;;;66.93;20.13;;;;;;;1.76;100.00;98198.53;4994067;28;20042;-78
2022/03/04 03:16:14;;;;;;;65.38;20.02;;;;;;;1.79;100.00;98197.22;4992345;28;20189;-77
2022/03/04 03:18:41;;;;;;;70.00;20.77;;;;;;;1.74;100.00;98191.81;4990257;28;20046;-76
2022/03/04 03:21:07;;;;;;;63.17;19.85;;;;;;;1.38;100.00;98189.66;4995915;28;20169;-79
2022/03/04 03:23:34;;;;;;;68.15;20.63;;;;;;;1.63;100.00;98198.88;4990049;28;20096;-77
2022/03/04 03:26:01;;;;;;;57.22;18.77;;;;;;;1.83;100.00;98193.81;4990724;28;20454;-77
2022/03/04 03:28:27;;;;;;;59.85;20.75;;;;;;;1.97;100.00;98198.81;4991603;28;20092;-77
2022/03/04 03:30:54;;;;;;;65.57;20.63;;;;;;;1.86;100.00;98200.53;4988396;28;20084;-77
2022/03/04 03:33:21;;;;;;;63.25;20.23;;;;;;;1.71;100.00;98202.97;4988920;28;20050;-77
2022/03/04 03:35:48;;;;;;;63.03;19.75;;;;;;;1.95;100.00;98199.06;4988928;28;20062;-78
2022/03/04 03:38:14;;;;;;;61.70;19.58;;;;;;;1.85;100.00;98206.94;4989303;28;20050;-77
2022/03/04 03:40:41;;;;;;;62.72;19.92;;;;;;;1.89;100.00;98198.19;4989389;28;20129;-77
2022/03/04 03:43:28;;;;;;;68.10;20.55;;;;;;;1.83;100.00;98206.38;4989677;28;20157;-77
2022/03/04 03:45:54;;;;;;;60.30;20.25;;;;;;;2.17;100.00;98201.78;4989438;28;20050;-77
2022/03/04 03:48:21;;;;;;;59.95;20.88;;;;;;;2.06;100.00;98200.03;4988488;28;20053;-77
2022/03/04 03:50:47;;;;;;;65.45;19.92;;;;;;;2.16;100.00;98194.81;4989576;28;20050;-78
2022/03/04 03:53:14;;;;;;;61.70;20.83;;;;;;;2.10;100.00;98196.59;4989020;28;20422;-77
2022/03/04 03:55:40;;;;;;;65.03;21.15;;;;;;;2.23;100.00;98201.59;4989802;28;20077;-76
2022/03/04 03:58:07;;;;;;;66.30;21.40;;;;;;;2.26;100.00;98193.09;4987963;28;20058;-77
2022/03/04 04:00:34;;;;;;;66.20;22.58;;;;;;;2.10;100.00;98201.94;4988773;28;20046;-78
2022/03/04 04:03:01;;;;;;;62.70;20.90;;;;;;;2.06;100.00;98206.19;4990120;28;20058;-78
2022/03/04 04:05:28;;;;;;;70.68;22.00;;;;;;;2.33;100.00;98203.56;4990916;28;20114;-78
2022/03/04 04:07:54;;;;;;;59.58;20.30;;;;;;;2.62;100.00;98196.19;4992322;28;20069;-78
2022/03/04 04:10:20;;;;;;;64.78;21.58;;;;;;;2.23;100.00;98212.28;4988892;28;20097;-75
2022/03/04 04:12:52;;;;;;;70.75;21.88;;;;;;;2.36;100.00;98219.94;4989451;28;20530;-78
2022/03/04 04:15:18;;;;;;;64.05;20.55;;;;;;;2.26;100.00;98213.66;4989205;28;20096;-77
2022/03/04 04:17:45;;;;;;;68.15;22.20;;;;;;;2.53;100.00;98215.31;4991093;28;20650;-77
2022/03/04 04:20:12;;;;;;;68.90;22.30;;;;;;;2.53;100.00;98205.72;4989477;28;20058;-78
2022/03/04 04:22:38;;;;;;;69.20;22.38;;;;;;;2.60;100.00;98204.47;4989998;28;20556;-77
2022/03/04 04:25:06;;;;;;;73.03;21.75;;;;;;;2.63;100.00;98206.66;4994901;28;20077;-78
2022/03/04 04:27:33;;;;;;;61.83;21.27;;;;;;;2.49;100.00;98202.72;4995217;28;20042;-78
2022/03/04 04:29:59;;;;;;;61.67;20.33;;;;;;;2.42;100.00;98194.91;4991990;28;20085;-78
2022/03/04 04:32:26;;;;;;;66.30;20.67;;;;;;;2.47;100.00;98207.50;4992084;28;20050;-77
2022/03/04 04:34:52;;;;;;;62.40;21.27;;;;;;;2.53;100.00;98205.72;4992261;28;20047;-77
2022/03/04 04:37:19;;;;;;;65.10;22.23;;;;;;;2.33;100.00;98198.25;4992371;28;20077;-76
2022/03/04 04:39:45;;;;;;;64.63;21.02;;;;;;;2.23;100.00;98204.25;5001256;28;20153;-76
2022/03/04 04:42:12;;;;;;;69.65;20.88;;;;;;;2.58;100.00;98209.25;5029062;28;20060;-77
2022/03/04 04:44:38;;;;;;;67.78;22.80;;;;;;;2.64;100.00;98208.25;5033272;28;20112;-77
2022/03/04 04:47:06;;;;;;;62.53;21.27;;;;;;;2.51;100.00;98212.09;5037682;28;20046;-77
2022/03/04 04:49:37;;;;;;;75.25;23.17;;;;;;;2.52;100.00;98207.56;5013464;28;20057;-77
2022/03/04 04:52:08;;;;;;;68.85;22.77;;;;;;;2.51;100.00;98198.75;5010179;28;20053;-77
2022/03/04 04:54:37;;;;;;;69.65;23.08;;;;;;;2.19;100.00;98194.34;5013592;28;20088;-78
2022/03/04 04:57:04;;;;;;;69.68;22.17;;;;;;;1.89;100.00;98187.50;5013854;28;20152;-78
2022/03/04 04:59:31;;;;;;;65.90;22.10;;;;;;;2.04;100.00;98202.91;5015572;28;20060;-77
2022/03/04 05:01:57;;;;;;;74.32;23.00;;;;;;;2.10;100.00;98193.13;5010131;28;20667;-77
2022/03/04 05:04:25;;;;;;;68.30;21.98;;;;;;;1.98;100.00;98187.09;5011773;28;20637;-78
2022/03/04 05:06:51;;;;;;;69.18;22.45;;;;;;;1.92;100.00;98191.56;5012440;28;20656;-77
2022/03/04 05:09:19;;;;;;;70.88;22.73;;;;;;;1.73;100.00;98196.34;5011300;28;20054;-77
2022/03/04 05:11:45;;;;;;;73.45;22.20;;;;;;;1.61;100.00;98186.81;5012188;28;20046;-77
2022/03/04 05:14:12;;;;;;;72.10;22.48;;;;;;;1.50;100.00;98187.69;5012089;28;20081;-77
2022/03/04 05:16:39;;;;;;;70.50;22.85;;;;;;;1.46;100.00;98181.25;5012443;28;20084;-77
2022/03/04 05:19:05;;;;;;;72.32;23.13;;;;;;;1.40;100.00;98179.53;5012077;28;20115;-77
2022/03/04 05:21:32;;;;;;;77.40;23.67;;;;;;;1.41;100.00;98189.97;5011755;28;20056;-78
2022/03/04 05:23:59;;;;;;;81.55;24.27;;;;;;;1.26;100.00;98187.84;5012254;28;20589;-77
2022/03/04 05:26:30;;;;;;;88.57;25.58;;;;;;;1.43;100.00;98184.41;5012450;28;20507;-77
2022/03/04 05:28:59;;;;;;;78.32;24.55;;;;;;;1.34;100.00;98184.00;5027828;28;20049;-77
2022/03/04 05:31:25;;;;;;;84.43;24.80;;;;;;;1.33;100.00;98176.22;5011886;28;20112;-77
2022/03/04 05:33:53;;;;;;;97.63;25.60;;;;;;;1.41;100.00;98184.66;5012227;28;20137;-77
2022/03/04 05:36:20;;;;;;;93.88;26.75;;;;;;;1.39;100.00;98189.44;5012005;28;20057;-79
2022/03/04 05:38:50;;;;;;;92.57;26.02;;;;;;;1.52;100.00;98194.44;5011961;28;20122;-76
2022/03/04 05:41:17;;;;;;;89.38;27.13;;;;;;;1.49;100.00;98192.25;5012376;28;20491;-77
2022/03/04 05:43:45;;;;;;;102.38;26.45;;;;;;;1.52;100.00;98194.44;5011489;28;20112;-80
2022/03/04 05:46:13;;;;;;;94.30;26.23;;;;;;;1.69;100.00;98197.09;5009657;28;20054;-78
2022/03/04 05:48:40;;;;;;;92.50;26.65;;;;;;;1.72;100.00;98196.59;5012332;28;20042;-78
2022/03/04 05:51:07;;;;;;;94.47;26.40;;;;;;;1.80;100.00;98199.66;5012232;28;20104;-77
2022/03/04 05:53:34;;;;;;;103.75;26.63;;;;;;;1.80;100.00;98210.34;5013112;28;20050;-79
2022/03/04 05:56:02;;;;;;;99.78;27.35;;;;;;;1.83;100.00;98203.72;4997402;28;20046;-79
2022/03/04 05:58:29;;;;;;;94.35;26.55;;;;;;;1.59;100.00;98200.41;4993596;28;20396;-78
2022/03/04 06:00:57;;;;;;;104.68;26.75;;;;;;;1.74;100.00;98213.16;4992272;28;20050;-77
2022/03/04 06:03:24;;;;;;;105.47;29.02;;;;;;;1.83;100.00;98214.38;4992296;28;20054;-77
2022/03/04 06:05:50;;;;;;;110.22;30.65;;;;;;;1.71;100.00;98209.13;4989581;28;20054;-79
2022/03/04 06:08:17;;;;;;;96.13;26.63;;;;;;;1.72;100.00;98224.09;4991631;28;20495;-76
2022/03/04 06:10:45;;;;;;;109.43;28.80;;;;;;;1.77;100.00;98220.69;4992119;28;20576;-78
2022/03/04 06:13:11;;;;;;;100.22;25.83;;;;;;;2.06;100.00;98235.56;4991992;28;20081;-78
2022/03/04 06:15:38;;;;;;;110.25;29.73;;;;;;;2.11;100.00;98224.94;4991587;28;20092;-77
2022/03/04 06:18:04;;;;;;;117.82;32.78;;;;;;;2.04;100.00;98231.50;4992104;28;20089;-77
2022/03/04 06:20:31;;;;;;;114.20;28.90;;;;;;;2.10;100.00;98238.53;4991255;28;20088;-77
2022/03/04 06:22:58;;;;;;;107.85;29.92;;;;;;;2.17;100.00;98228.50;4998540;28;20061;-78
2022/03/04 06:25:28;;;;;;;125.00;35.67;;;;;;;1.92;100.00;98239.59;4993731;28;20053;-78
2022/03/04 06:27:59;;;;;;;129.73;38.33;;;;;;;2.18;100.00;98235.44;4991787;28;20050;-78
2022/03/04 06:30:29;;;;;;;140.20;40.15;;;;;;;2.31;100.00;98241.25;4990127;28;20058;-78
2022/03/04 06:35:43;;;;;;;108.97;31.23;;;;;;;1.95;100.00;98246.31;5001961;28;20077;-78
2022/03/04 06:38:10;;;;;;;114.75;31.50;;;;;;;2.03;100.00;98248.56;5013057;28;20050;-77
2022/03/04 06:40:36;;;;;;;116.20;31.40;;;;;;;2.02;100.00;98250.44;5012100;28;20066;-76
2022/03/04 06:43:04;;;;;;;109.82;29.73;;;;;;;2.10;100.00;98242.00;5003738;28;20419;-78
2022/03/04 06:45:31;;;;;;;119.07;33.10;;;;;;;1.96;100.00;98250.63;4987759;28;20557;-77
2022/03/04 06:47:58;;;;;;;110.65;32.80;;;;;;;1.89;100.00;98256.91;4988113;28;20050;-79
2022/03/04 06:50:24;;;;;;;113.82;33.08;;;;;;;1.98;100.00;98254.66;4983779;28;20054;-77
2022/03/04 06:52:52;;;;;;;122.47;34.25;;;;;;;2.18;100.00;98254.13;4986837;28;20085;-77
2022/03/04 06:55:18;;;;;;;137.75;39.70;;;;;;;2.05;100.00;98257.97;4986963;28;20080;-77
2022/03/04 06:57:46;;;;;;;147.35;39.50;;;;;;;2.08;100.00;98264.66;4987113;28;20081;-78
2022/03/04 07:00:13;;;;;;;134.10;36.78;;;;;;;2.03;100.00;98253.91;4990570;28;20109;-78
2022/03/04 07:02:39;;;;;;;129.05;36.85;;;;;;;1.90;100.00;98263.06;4990288;28;20070;-77
2022/03/04 07:05:08;;;;;;;136.27;37.45;;;;;;;2.03;100.00;98257.41;4989304;28;20056;-76
2022/03/04 07:07:35;;;;;;;143.02;38.47;;;;;;;1.91;100.00;98278.03;5004185;28;20104;-77
2022/03/04 07:10:04;;;;;;;141.35;38.70;;;;;;;2.07;100.00;98266.53;4989663;28;20467;-78
2022/03/04 07:12:31;;;;;;;132.25;39.78;;;;;;;2.04;100.00;98272.34;5009675;28;20050;-77
2022/03/04 07:14:57;;;;;;;121.72;36.53;;;;;;;2.20;100.00;98270.72;5009783;28;20064;-77
2022/03/04 07:17:24;;;;;;;134.43;37.35;;;;;;;1.95;100.00;98279.16;5010672;28;20474;-77
2022/03/04 07:19:50;;;;;;;146.70;39.92;;;;;;;1.82;100.00;98279.50;5010870;28;20050;-77
2022/03/04 07:22:17;;;;;;;130.75;40.22;;;;;;;1.93;100.00;98281.28;5009539;28;20080;-77
2022/03/04 07:24:43;;;;;;;133.52;38.45;;;;;;;2.22;100.00;98285.44;5009787;28;20081;-77
2022/03/04 07:27:10;;;;;;;138.93;38.97;;;;;;;1.98;100.00;98278.69;5009395;28;20418;-77
2022/03/04 07:29:37;;;;;;;149.50;40.83;;;;;;;1.91;100.00;98277.22;5002154;28;20392;-77
2022/03/04 07:32:04;;;;;;;147.55;40.28;;;;;;;1.98;100.00;98276.00;5005607;28;20081;-77
2022/03/04 07:34:30;;;;;;;153.15;39.40;;;;;;;1.89;100.00;98278.28;4999769;28;20090;-77
2022/03/04 07:36:57;;;;;;;141.52;39.53;;;;;;;1.79;100.00;98290.66;4990007;28;20503;-77
2022/03/04 07:39:23;;;;;;;136.13;38.70;;;;;;;2.04;100.00;98285.69;4988376;28;20100;-77
2022/03/04 07:41:51;;;;;;;138.05;36.55;;;;;;;1.98;100.00;98276.00;4988091;28;20080;-78
2022/03/04 07:44:18;;;;;;;135.05;37.47;;;;;;;2.02;100.00;98297.69;4989092;28;20050;-77
2022/03/04 07:46:45;;;;;;;146.45;38.30;;;;;;;1.92;100.00;98292.19;4989260;28;20046;-77
2022/03/04 07:49:12;;;;;;;151.77;39.35;;;;;;;1.85;100.00;98289.69;4989806;28;20133;-78
2022/03/04 07:51:39;;;;;;;134.70;34.83;;;;;;;1.81;100.00;98292.03;4989770;28;20050;-77
2022/03/04 07:54:06;;;;;;;127.63;37.80;;;;;;;1.92;100.00;98293.00;4990121;28;20058;-77
2022/03/04 07:56:33;;;;;;;135.18;36.25;;;;;;;1.91;100.00;98295.91;4989684;28;20467;-77
2022/03/04 07:59:00;;;;;;;137.35;38.75;;;;;;;1.98;100.00;98291.22;4990627;28;20120;-77
2022/03/04 08:01:26;;;;;;;140.23;37.40;;;;;;;2.07;100.00;98297.75;4990021;28;20054;-77
2022/03/04 08:03:54;;;;;;;166.80;42.78;;;;;;;2.02;100.00;98295.81;5004657;28;20056;-77
2022/03/04 08:06:20;;;;;;;186.65;46.75;;;;;;;1.95;100.00;98297.03;5008777;28;20073;-77
2022/03/04 08:08:47;;;;;;;193.60;47.35;;;;;;;2.12;100.00;98308.50;5012523;28;20137;-77
2022/03/04 08:11:13;;;;;;;159.50;41.67;;;;;;;2.03;100.00;98293.97;5012121;28;20064;-76
2022/03/04 08:13:40;;;;;;;161.68;44.10;;;;;;;1.98;100.00;98313.41;4996772;28;20050;-77
2022/03/04 08:16:06;;;;;;;133.23;36.72;;;;;;;2.02;100.00;98311.03;4991710;28;20054;-77
2022/03/04 08:18:33;;;;;;;137.10;38.35;;;;;;;2.13;100.00;98321.63;4992030;28;20077;-78
2022/03/04 08:21:00;;;;;;;169.15;44.17;;;;;;;1.94;100.00;98322.13;4991425;28;20060;-78
2022/03/04 08:23:27;;;;;;;207.82;48.05;;;;;;;2.00;100.00;98311.28;5004219;28;20046;-77
2022/03/04 08:25:55;;;;;;;199.15;51.35;;;;;;;1.91;100.00;98326.06;5009495;28;20054;-77
2022/03/04 08:28:22;;;;;;;141.73;39.92;;;;;;;2.00;100.00;98321.16;5010494;28;20050;-76
2022/03/04 08:30:48;;;;;;;123.78;35.92;;;;;;;2.21;100.00;98315.88;5009842;28;20054;-77
2022/03/04 08:33:16;;;;;;;147.10;40.13;;;;;;;2.25;100.00;98308.19;5009537;28;20080;-78
2022/03/04 08:35:42;;;;;;;140.18;37.88;;;;;;;2.33;100.00;98300.56;5009555;28;20073;-77
2022/03/04 08:38:09;;;;;;;150.05;36.88;;;;;;;2.49;100.00;98313.09;4992544;28;20050;-78
2022/03/04 08:40:35;;;;;;;149.65;39.00;;;;;;;2.53;100.00;98310.72;4989457;28;20584;-77
2022/03/04 08:43:02;;;;;;;137.35;37.72;;;;;;;2.46;100.00;98302.06;4990133;28;20069;-76
2022/03/04 08:45:29;;;;;;;135.02;37.88;;;;;;;2.53;100.00;98310.72;4993993;28;20058;-77
2022/03/04 08:47:55;;;;;;;123.55;35.35;;;;;;;2.69;100.00;98311.72;5004902;28;20050;-77
2022/03/04 08:50:22;;;;;;;116.38;35.30;;;;;;;2.70;100.00;98310.69;5008678;28;20344;-77
2022/03/04 08:52:48;;;;;;;110.50;35.40;;;;;;;2.88;100.00;98313.88;5000934;28;20403;-74
2022/03/04 08:55:15;;;;;;;108.68;35.25;;;;;;;3.27;100.00;98311.09;4996044;28;20123;-77
2022/03/04 08:57:46;;;;;;;107.40;34.45;;;;;;;2.97;100.00;98309.69;4989565;28;20061;-77
2022/03/04 09:00:15;;;;;;;105.22;33.10;;;;;;;3.35;100.00;98314.16;4989133;28;20811;-76
2022/03/04 09:02:41;;;;;;;110.50;36.42;;;;;;;3.61;100.00;98307.97;4987580;28;20050;-77
2022/03/04 09:05:08;;;;;;;111.20;36.80;;;;;;;4.00;100.00;98313.94;4988978;28;20474;-77
2022/03/04 09:07:35;;;;;;;82.25;31.10;;;;;;;3.84;100.00;98306.03;4989739;28;20054;-77
2022/03/04 09:10:05;;;;;;;104.68;36.42;;;;;;;3.45;100.00;98319.59;4991413;28;20499;-76
2022/03/04 09:12:32;;;;;;;133.95;41.83;;;;;;;3.31;100.00;98318.38;4991720;28;20057;-76
2022/03/04 09:14:59;;;;;;;115.07;37.75;;;;;;;3.27;100.00;98313.78;4992586;28;20499;-77
2022/03/04 09:17:25;;;;;;;104.53;34.83;;;;;;;2.75;100.00;98311.56;4993005;28;20388;-77
2022/03/04 09:19:52;;;;;;;105.68;35.50;;;;;;;2.83;100.00;98315.66;4992905;28;20075;-76
2022/03/04 09:22:24;;;;;;;123.65;39.40;;;;;;;2.99;100.00;98320.16;4992967;28;20522;-77
2022/03/04 09:24:50;;;;;;;101.78;33.60;;;;;;;3.10;100.00;98316.53;4993832;28;20093;-77
2022/03/04 09:27:17;;;;;;;97.90;32.15;;;;;;;3.38;100.00;98320.88;4992686;28;20081;-77
2022/03/04 09:29:45;;;;;;;87.00;28.67;;;;;;;3.68;100.00;98313.13;5012303;28;20074;-77
2022/03/04 09:32:13;;;;;;;77.68;28.27;;;;;;;3.74;100.00;98330.88;5011690;28;20054;-76
2022/03/04 09:34:39;;;;;;;91.93;30.88;;;;;;;3.94;100.00;98322.19;5011951;28;20041;-77
2022/03/04 09:37:06;;;;;;;79.90;28.98;;;;;;;3.75;100.00;98333.28;5012721;28;20050;-76
2022/03/04 09:39:32;;;;;;;82.28;28.75;;;;;;;3.31;100.00;98333.63;5012153;28;20107;-77
2022/03/04 09:41:59;;;;;;;82.75;29.67;;;;;;;3.69;100.00;98322.78;5001494;28;20043;-77
2022/03/04 09:44:26;;;;;;;85.05;29.40;;;;;;;3.48;100.00;98339.69;4992415;28;20534;-77
2022/03/04 09:46:53;;;;;;;73.43;26.95;;;;;;;3.53;100.00;98335.22;4992007;28;20129;-77
2022/03/04 09:49:29;;;;;;;86.75;28.80;;;;;;;3.41;100.00;98337.22;4992260;28;20093;-76
2022/03/04 09:51:56;;;;;;;80.03;28.60;;;;;;;3.36;100.00;98333.66;4992338;28;20490;-77
2022/03/04 09:54:27;;;;;;;89.35;30.38;;;;;;;3.41;100.00;98331.84;4992173;28;20092;-77
2022/03/04 09:56:55;;;;;;;92.25;30.30;;;;;;;3.41;100.00;98333.72;4992658;28;20128;-77
2022/03/04 09:59:21;;;;;;;70.72;25.98;;;;;;;3.48;100.00;98337.84;4991899;28;20116;-77
2022/03/04 10:01:48;;;;;;;89.30;30.05;;;;;;;3.44;100.00;98333.22;4991486;28;20432;-77
2022/03/04 10:04:15;;;;;;;70.93;24.83;;;;;;;3.48;100.00;98339.69;4991382;28;20057;-78
2022/03/04 10:06:46;;;;;;;81.78;27.83;;;;;;;3.40;100.00;98334.78;4992222;28;20057;-77
2022/03/04 10:09:35;;;;;;;69.32;25.30;;;;;;;3.35;100.00;98337.41;5010233;28;20076;-77
2022/03/04 10:12:05;;;;;;;72.82;25.33;;;;;;;2.95;100.00;98343.09;5011518;28;20457;-77
2022/03/04 10:14:32;;;;;;;70.10;23.60;;;;;;;3.36;100.00;98345.19;5011780;28;20136;-77
2022/03/04 10:16:59;;;;;;;58.03;22.98;;;;;;;3.59;100.00;98336.03;4995802;28;20548;-81
2022/03/04 10:19:25;;;;;;;60.67;22.58;;;;;;;3.53;100.00;98334.41;4997300;28;20065;-78
2022/03/04 10:22:05;;;;;;;65.85;23.15;;;;;;;3.65;100.00;98343.09;5010933;28;20095;-78
2022/03/04 10:24:37;;;;;;;56.03;20.92;;;;;;;3.68;100.00;98339.91;4999982;28;20073;-78
2022/03/04 10:27:09;;;;;;;53.47;20.33;;;;;;;3.85;100.00;98334.41;4992372;28;20062;-78
2022/03/04 10:29:40;;;;;;;65.40;24.23;;;;;;;4.18;100.00;98348.38;4991560;28;20073;-77
2022/03/04 10:32:20;;;;;;;53.67;21.15;;;;;;;4.43;100.00;98331.69;4991282;28;20107;-78
2022/03/04 10:35:01;;;;;;;63.80;23.10;;;;;;;4.44;100.00;98330.59;4990070;28;20398;-76
2022/03/04 10:37:52;;;;;;;54.10;20.20;;;;;;;4.33;100.00;98324.38;4992220;28;20467;-76
2022/03/04 10:40:29;;;;;;;45.80;17.52;;;;;;;4.49;100.00;98327.94;4992060;28;20486;-76
2022/03/04 10:43:05;;;;;;;42.53;17.73;;;;;;;4.65;100.00;98331.53;4992443;28;20565;-76
2022/03/04 10:45:35;;;;;;;36.47;15.55;;;;;;;5.19;100.00;98326.72;5007531;28;20050;-76
2022/03/04 10:48:07;;;;;;;43.30;16.40;;;;;;;5.25;100.00;98320.28;4995890;28;20061;-77
2022/03/04 10:50:42;;;;;;;36.30;15.43;;;;;;;5.43;100.00;98335.91;5004163;28;20051;-78
2022/03/04 10:53:09;;;;;;;44.80;16.15;;;;;;;5.39;100.00;98330.28;5005084;28;20051;-76
2022/03/04 10:55:42;;;;;;;39.97;15.98;;;;;;;5.46;100.00;98333.50;5004689;28;20054;-76
2022/03/04 10:58:14;;;;;;;42.55;16.58;;;;;;;4.49;100.00;98333.31;4998051;28;20050;-77
2022/03/04 11:00:43;;;;;;;39.88;16.08;;;;;;;4.77;100.00;98324.94;5013721;28;20486;-77
2022/03/04 11:03:15;;;;;;;43.92;16.33;;;;;;;4.47;100.00;98331.97;5010993;28;20132;-75
2022/03/04 11:05:42;;;;;;;42.47;15.90;;;;;;;3.99;100.00;98319.56;5010849;28;20054;-77
2022/03/04 11:08:09;;;;;;;41.22;16.23;;;;;;;3.93;100.00;98325.94;5010267;28;20490;-77
2022/03/04 11:10:36;;;;;;;40.20;15.30;;;;;;;3.51;100.00;98321.25;5010961;28;20077;-78
2022/03/04 11:13:05;;;;;;;38.75;14.77;;;;;;;3.81;100.00;98310.03;5009869;28;20107;-75
2022/03/04 11:15:33;;;;;;;38.70;15.27;;;;;;;3.63;100.00;98329.16;5003621;28;20054;-76
2022/03/04 11:18:06;;;;;;;41.28;16.48;;;;;;;3.99;100.00;98332.94;4992924;28;20093;-75